createdAt,value
2024-04-21T00:00:46.296Z,54.93
2024-04-21T00:01:46.287Z,54.02
2024-04-21T00:02:46.291Z,51.68
2024-04-21T00:03:46.445Z,50.60
2024-04-21T00:04:46.361Z,51.65
2024-04-21T00:05:46.408Z,52.61
2024-04-21T00:06:46.359Z,49.68
2024-04-21T00:07:46.305Z,53.37
2024-04-21T00:08:46.320Z,52.70
2024-04-21T00:09:46.336Z,52.38
2024-04-21T00:10:46.329Z,54.49
2024-04-21T00:11:46.300Z,51.26
2024-04-21T00:12:46.336Z,51.75
2024-04-21T00:13:46.329Z,54.76
2024-04-21T00:14:46.350Z,52.94
2024-04-21T00:15:46.467Z,54.80
2024-04-21T00:16:46.579Z,52.96
2024-04-21T00:17:46.515Z,56.18
2024-04-21T00:18:46.617Z,53.62
2024-04-21T00:19:46.746Z,53.15
2024-04-21T00:20:46.912Z,54.39
2024-04-21T00:21:47.109Z,53.13
2024-04-21T00:22:47.272Z,51.63
2024-04-21T00:23:47.459Z,53.85
2024-04-21T00:24:47.629Z,55.23
2024-04-21T00:25:47.687Z,50.55
2024-04-21T00:26:47.772Z,52.84
2024-04-21T00:27:47.861Z,55.82
2024-04-21T00:28:47.940Z,53.63
2024-04-21T00:29:47.994Z,57.04
2024-04-21T00:30:48.166Z,55.29
2024-04-21T00:31:48.343Z,56.03
2024-04-21T00:32:48.541Z,53.76
2024-04-21T00:33:48.891Z,52.74
2024-04-21T00:34:48.844Z,53.81
2024-04-21T00:35:48.901Z,56.50
2024-04-21T00:36:49.066Z,50.00
2024-04-21T00:37:49.043Z,51.52
2024-04-21T00:38:49.187Z,53.69
2024-04-21T00:39:49.315Z,57.14
2024-04-21T00:40:49.352Z,54.60
2024-04-21T00:41:49.406Z,55.93
2024-04-21T00:42:49.544Z,56.72
2024-04-21T00:43:49.578Z,57.68
2024-04-21T00:44:49.668Z,53.79
2024-04-21T00:45:49.776Z,53.73
2024-04-21T00:46:49.863Z,55.72
2024-04-21T00:47:49.940Z,56.18
2024-04-21T00:48:50.014Z,57.08
2024-04-21T00:49:50.041Z,56.32
2024-04-21T00:50:50.150Z,59.03
2024-04-21T00:51:50.255Z,57.14
2024-04-21T00:52:50.296Z,56.48
2024-04-21T00:53:50.375Z,56.37
2024-04-21T00:54:50.523Z,57.49
2024-04-21T00:55:50.560Z,58.77
2024-04-21T00:56:50.638Z,59.02
2024-04-21T00:57:50.743Z,56.37
2024-04-21T00:58:50.815Z,57.04
2024-04-21T00:59:50.888Z,58.10
2024-04-21T01:00:51.058Z,55.76
2024-04-21T01:01:51.068Z,58.24
2024-04-21T01:02:51.152Z,56.91
2024-04-21T01:03:51.364Z,56.12
2024-04-21T01:04:51.401Z,54.84
2024-04-21T01:05:53.520Z,56.45
2024-04-21T01:06:51.435Z,56.20
2024-04-21T01:07:51.486Z,57.53
2024-04-21T01:08:51.495Z,56.04
2024-04-21T01:09:51.512Z,57.10
2024-04-21T01:10:51.581Z,58.84
2024-04-21T01:11:51.584Z,56.30
2024-04-21T01:12:51.679Z,54.52
2024-04-21T01:13:51.654Z,55.70
2024-04-21T01:14:51.675Z,51.65
2024-04-21T01:15:51.825Z,53.16
2024-04-21T01:16:51.728Z,51.31
2024-04-21T01:17:51.886Z,51.09
2024-04-21T01:18:51.829Z,50.89
2024-04-21T01:19:51.813Z,51.41
2024-04-21T01:20:51.855Z,53.01
2024-04-21T01:21:51.919Z,51.08
2024-04-21T01:22:51.998Z,52.09
2024-04-21T01:23:52.090Z,52.71
2024-04-21T01:24:52.235Z,51.95
2024-04-21T01:25:52.239Z,50.66
2024-04-21T01:26:52.280Z,51.04
2024-04-21T01:27:52.398Z,52.68
2024-04-21T01:28:52.416Z,51.47
2024-04-21T01:29:52.523Z,50.96
2024-04-21T01:30:52.649Z,52.24
2024-04-21T01:31:52.667Z,50.90
2024-04-21T01:32:52.864Z,52.16
2024-04-21T01:33:52.839Z,51.32
2024-04-21T01:34:52.879Z,50.16
2024-04-21T01:35:52.966Z,53.78
2024-04-21T01:36:53.065Z,51.82
2024-04-21T01:37:53.122Z,53.07
2024-04-21T01:38:53.226Z,50.00
2024-04-21T01:39:53.445Z,50.00
2024-04-21T01:40:53.438Z,50.00
2024-04-21T01:41:53.479Z,52.43
2024-04-21T01:42:53.644Z,54.19
2024-04-21T01:43:53.615Z,51.92
2024-04-21T01:44:53.692Z,51.34
2024-04-21T01:45:53.921Z,52.65
2024-04-21T01:46:53.876Z,50.92
2024-04-21T01:47:53.971Z,50.00
2024-04-21T01:48:54.057Z,51.67
2024-04-21T01:49:54.090Z,51.09
2024-04-21T01:50:54.199Z,50.00
2024-04-21T01:51:54.295Z,51.49
2024-04-21T01:52:54.356Z,52.49
2024-04-21T01:53:54.437Z,50.76
2024-04-21T01:54:54.536Z,50.00
2024-04-21T01:55:54.564Z,51.51
2024-04-21T01:56:54.689Z,51.10
2024-04-21T01:57:54.787Z,53.09
2024-04-21T01:58:54.826Z,52.15
2024-04-21T01:59:54.894Z,53.18
2024-04-21T02:00:55.026Z,52.76
2024-04-21T02:01:55.061Z,52.21
2024-04-21T02:02:55.182Z,52.50
2024-04-21T02:03:55.281Z,52.67
2024-04-21T02:04:55.310Z,53.13
2024-04-21T02:05:55.395Z,52.13
2024-04-21T02:06:55.519Z,50.70
2024-04-21T02:07:55.544Z,52.60
2024-04-21T02:08:55.641Z,51.62
2024-04-21T02:09:55.706Z,53.20
2024-04-21T02:10:55.783Z,49.87
2024-04-21T02:11:55.868Z,52.28
2024-04-21T02:12:55.978Z,53.05
2024-04-21T02:13:56.024Z,53.59
2024-04-21T02:14:56.100Z,55.14
2024-04-21T02:15:56.228Z,54.25
2024-04-21T02:16:56.296Z,54.54
2024-04-21T02:17:56.375Z,55.94
2024-04-21T02:18:56.530Z,53.79
2024-04-21T02:19:56.529Z,55.70
2024-04-21T02:20:56.600Z,55.12
2024-04-21T02:21:56.699Z,52.02
2024-04-21T02:22:56.808Z,53.52
2024-04-21T02:23:56.867Z,54.17
2024-04-21T02:24:56.938Z,54.37
2024-04-21T02:25:57.038Z,51.61
2024-04-21T02:26:57.117Z,54.99
2024-04-21T02:27:57.229Z,53.31
2024-04-21T02:28:57.291Z,53.98
2024-04-21T02:29:57.363Z,54.02
2024-04-21T02:30:57.447Z,53.93
2024-04-21T02:31:57.527Z,53.51
2024-04-21T02:32:57.736Z,56.89
2024-04-21T02:33:57.683Z,57.46
2024-04-21T02:34:57.767Z,55.93
2024-04-21T02:35:57.855Z,57.35
2024-04-21T02:36:57.925Z,57.34
2024-04-21T02:37:58.037Z,57.68
2024-04-21T02:38:58.106Z,60.36
2024-04-21T02:39:58.229Z,57.12
2024-04-21T02:40:58.267Z,58.33
2024-04-21T02:41:58.320Z,58.22
2024-04-21T02:42:58.439Z,55.82
2024-04-21T02:43:58.511Z,59.69
2024-04-21T02:44:58.566Z,58.75
2024-04-21T02:45:58.677Z,58.84
2024-04-21T02:46:58.790Z,59.22
2024-04-21T02:47:58.843Z,58.71
2024-04-21T02:48:59.005Z,58.53
2024-04-21T02:49:58.998Z,58.39
2024-04-21T02:50:59.093Z,57.59
2024-04-21T02:51:59.172Z,62.09
2024-04-21T02:52:59.235Z,65.42
2024-04-21T02:53:59.332Z,65.50
2024-04-21T02:54:59.432Z,66.07
2024-04-21T02:55:59.580Z,64.34
2024-04-21T02:56:59.592Z,65.10
2024-04-21T02:57:59.733Z,63.60
2024-04-21T02:58:59.738Z,66.06
2024-04-21T02:59:59.805Z,64.78
2024-04-21T03:00:59.939Z,65.85
2024-04-21T03:01:59.983Z,64.89
2024-04-21T03:03:00.036Z,66.39
2024-04-21T03:04:00.240Z,65.06
2024-04-21T03:05:00.286Z,66.14
2024-04-21T03:06:00.325Z,67.25
2024-04-21T03:07:00.589Z,66.46
2024-04-21T03:08:00.445Z,67.54
2024-04-21T03:09:00.623Z,66.01
2024-04-21T03:10:00.628Z,66.18
2024-04-21T03:11:00.769Z,69.68
2024-04-21T03:12:00.770Z,66.68
2024-04-21T03:13:00.855Z,71.23
2024-04-21T03:14:00.921Z,70.19
2024-04-21T03:15:00.994Z,70.82
2024-04-21T03:16:01.096Z,72.75
2024-04-21T03:17:01.227Z,72.57
2024-04-21T03:18:01.320Z,73.50
2024-04-21T03:19:01.402Z,72.80
2024-04-21T03:20:01.399Z,74.25
2024-04-21T03:21:01.516Z,73.81
2024-04-21T03:22:01.656Z,74.17
2024-04-21T03:23:01.657Z,75.84
2024-04-21T03:24:01.768Z,78.90
2024-04-21T03:25:01.871Z,79.23
2024-04-21T03:26:01.898Z,79.25
2024-04-21T03:27:02.017Z,80.99
2024-04-21T03:28:02.095Z,76.65
2024-04-21T03:29:02.173Z,83.31
2024-04-21T03:30:02.239Z,81.80
2024-04-21T03:31:02.391Z,81.32
2024-04-21T03:32:02.358Z,82.12
2024-04-21T03:33:02.584Z,84.88
2024-04-21T03:34:02.606Z,85.22
2024-04-21T03:35:02.634Z,85.31
2024-04-21T03:36:02.747Z,85.00
2024-04-21T03:37:02.879Z,83.39
2024-04-21T03:38:02.875Z,85.17
2024-04-21T03:39:02.961Z,82.99
2024-04-21T03:40:03.086Z,82.13
2024-04-21T03:41:03.121Z,81.50
2024-04-21T03:42:03.219Z,77.59
2024-04-21T03:43:03.330Z,76.53
2024-04-21T03:44:03.433Z,74.41
2024-04-21T03:45:03.473Z,76.11
2024-04-21T03:46:03.590Z,73.06
2024-04-21T03:47:03.690Z,73.44
2024-04-21T03:48:03.751Z,73.58
2024-04-21T03:49:03.874Z,72.43
2024-04-21T03:50:03.917Z,71.88
2024-04-21T03:51:03.996Z,71.59
2024-04-21T03:52:04.130Z,73.91
2024-04-21T03:53:04.164Z,73.80
2024-04-21T03:54:04.257Z,75.55
2024-04-21T03:55:04.407Z,71.22
2024-04-21T03:56:04.422Z,72.01
2024-04-21T03:57:04.501Z,71.14
2024-04-21T03:58:04.614Z,72.17
2024-04-21T03:59:04.731Z,70.64
2024-04-21T04:00:04.756Z,71.58
2024-04-21T04:01:04.958Z,72.47
2024-04-21T04:02:04.926Z,71.52
2024-04-21T04:03:05.049Z,73.15
2024-04-21T04:04:05.222Z,74.27
2024-04-21T04:05:05.199Z,75.38
2024-04-21T04:06:05.247Z,79.16
2024-04-21T04:07:05.384Z,74.04
2024-04-21T04:08:05.458Z,74.99
2024-04-21T04:09:05.533Z,73.37
2024-04-21T04:10:05.615Z,75.22
2024-04-21T04:11:05.662Z,75.56
2024-04-21T04:12:05.809Z,75.49
2024-04-21T04:13:05.916Z,79.21
2024-04-21T04:14:05.929Z,77.82
2024-04-21T04:15:06.014Z,76.38
2024-04-21T04:16:06.092Z,75.51
2024-04-21T04:17:06.201Z,73.19
2024-04-21T04:18:06.309Z,75.15
2024-04-21T04:19:06.373Z,77.53
2024-04-21T04:20:06.397Z,76.16
2024-04-21T04:21:06.483Z,78.85
2024-04-21T04:22:06.642Z,78.81
2024-04-21T04:23:06.808Z,76.92
2024-04-21T04:24:06.740Z,77.39
2024-04-21T04:25:06.882Z,80.43
2024-04-21T04:26:09.493Z,82.34
2024-04-21T04:27:06.903Z,82.72
2024-04-21T04:28:14.124Z,50.00
2024-04-21T04:29:14.111Z,50.00
2024-04-21T04:30:14.128Z,50.00
2024-04-21T04:31:21.375Z,50.00
2024-04-21T04:32:21.328Z,50.00
2024-04-21T04:33:21.418Z,50.00
2024-04-21T04:34:21.392Z,50.00
2024-04-21T04:35:21.321Z,50.00
2024-04-21T04:36:21.356Z,51.67
2024-04-21T04:37:21.331Z,52.06
2024-04-21T04:38:21.320Z,53.04
2024-04-21T04:39:21.357Z,53.27
2024-04-21T04:40:21.411Z,50.54
2024-04-21T04:41:21.341Z,54.35
2024-04-21T04:42:21.349Z,52.99
2024-04-21T04:43:21.420Z,53.59
2024-04-21T04:44:21.346Z,53.52
2024-04-21T04:45:21.353Z,56.74
2024-04-21T04:46:21.400Z,56.60
2024-04-21T04:47:21.341Z,58.10
2024-04-21T04:48:21.410Z,59.72
2024-04-21T04:49:21.432Z,59.36
2024-04-21T04:50:21.353Z,58.95
2024-04-21T04:51:21.342Z,57.96
2024-04-21T04:52:21.450Z,55.67
2024-04-21T04:53:21.365Z,60.63
2024-04-21T04:54:21.381Z,61.16
2024-04-21T04:55:21.458Z,60.93
2024-04-21T04:56:21.384Z,61.23
2024-04-21T04:57:21.400Z,60.66
2024-04-21T04:58:21.555Z,59.93
2024-04-21T04:59:21.394Z,62.17
2024-04-21T05:00:21.380Z,61.64
2024-04-21T05:01:21.459Z,63.05
2024-04-21T05:02:21.497Z,63.11
2024-04-21T05:03:23.946Z,62.25
2024-04-21T05:04:21.593Z,62.20
2024-04-21T05:05:21.584Z,61.73
2024-04-21T05:06:21.633Z,63.05
2024-04-21T05:07:21.646Z,64.62
2024-04-21T05:08:21.636Z,62.75
2024-04-21T05:09:21.681Z,66.03
2024-04-21T05:10:21.781Z,64.37
2024-04-21T05:11:21.772Z,64.71
2024-04-21T05:12:21.736Z,67.20
2024-04-21T05:13:21.815Z,67.61
2024-04-21T05:14:21.809Z,66.98
2024-04-21T05:15:21.822Z,68.12
2024-04-21T05:16:21.943Z,67.45
2024-04-21T05:17:21.956Z,69.30
2024-04-21T05:18:22.077Z,70.09
2024-04-21T05:19:22.110Z,66.76
2024-04-21T05:20:22.177Z,69.04
2024-04-21T05:21:22.284Z,70.14
2024-04-21T05:22:22.410Z,69.68
2024-04-21T05:23:22.451Z,68.05
2024-04-21T05:24:22.511Z,69.28
2024-04-21T05:25:22.618Z,73.21
2024-04-21T05:26:22.652Z,68.42
2024-04-21T05:27:22.749Z,70.77
2024-04-21T05:28:36.297Z,70.44
2024-04-21T05:29:23.862Z,70.52
2024-04-21T05:30:22.817Z,70.71
2024-04-21T05:31:22.841Z,70.52
2024-04-21T05:32:22.968Z,71.18
2024-04-21T05:33:22.834Z,71.96
2024-04-21T05:34:22.942Z,72.94
2024-04-21T05:35:22.848Z,74.13
2024-04-21T05:36:22.834Z,72.64
2024-04-21T05:37:22.908Z,72.69
2024-04-21T05:38:22.876Z,70.27
2024-04-21T05:39:22.830Z,71.16
2024-04-21T05:40:22.927Z,70.47
2024-04-21T05:41:22.860Z,70.42
2024-04-21T05:42:22.942Z,71.48
2024-04-21T05:43:23.028Z,70.61
2024-04-21T05:44:23.107Z,70.01
2024-04-21T05:45:23.261Z,70.06
2024-04-21T05:46:23.296Z,71.29
2024-04-21T05:47:23.360Z,69.37
2024-04-21T05:48:23.433Z,69.40
2024-04-21T05:49:23.588Z,68.43
2024-04-21T05:50:23.606Z,65.95
2024-04-21T05:51:23.662Z,64.54
2024-04-21T05:52:23.933Z,62.13
2024-04-21T05:53:23.820Z,59.99
2024-04-21T05:54:23.878Z,63.03
2024-04-21T05:55:24.040Z,59.25
2024-04-21T05:56:24.096Z,60.14
2024-04-21T05:57:24.158Z,59.70
2024-04-21T05:58:24.262Z,59.29
2024-04-21T05:59:25.657Z,55.91
2024-04-21T06:00:24.342Z,56.64
2024-04-21T06:01:24.474Z,54.94
2024-04-21T06:02:24.580Z,52.66
2024-04-21T06:03:24.627Z,52.81
2024-04-21T06:04:24.791Z,51.35
2024-04-21T06:05:24.772Z,52.37
2024-04-21T06:06:24.842Z,52.98
2024-04-21T06:07:24.972Z,51.19
2024-04-21T06:08:25.048Z,50.73
2024-04-21T06:09:25.092Z,51.79
2024-04-21T06:10:25.259Z,51.51
2024-04-21T06:11:25.274Z,54.51
2024-04-21T06:12:25.358Z,54.38
2024-04-21T06:13:25.427Z,53.46
2024-04-21T06:14:25.500Z,54.09
2024-04-21T06:15:25.605Z,53.82
2024-04-21T06:16:25.692Z,55.22
2024-04-21T06:17:25.816Z,53.80
2024-04-21T06:18:25.868Z,50.58
2024-04-21T06:19:25.987Z,50.49
2024-04-21T06:20:25.983Z,52.24
2024-04-21T06:21:26.067Z,51.79
2024-04-21T06:22:26.178Z,54.02
2024-04-21T06:23:26.205Z,51.37
2024-04-21T06:24:26.307Z,52.23
2024-04-21T06:25:26.417Z,54.02
2024-04-21T06:26:26.478Z,50.69
2024-04-21T06:27:26.557Z,51.84
2024-04-21T06:28:26.691Z,53.51
2024-04-21T06:29:26.743Z,55.48
2024-04-21T06:30:26.813Z,53.37
2024-04-21T06:31:26.904Z,54.28
2024-04-21T06:32:27.054Z,54.09
2024-04-21T06:33:27.063Z,52.42
2024-04-21T06:34:27.194Z,52.24
2024-04-21T06:35:27.254Z,50.00
2024-04-21T06:36:27.300Z,50.00
2024-04-21T06:37:27.453Z,50.00
2024-04-21T06:38:27.475Z,51.75
2024-04-21T06:39:27.577Z,53.90
2024-04-21T06:40:27.698Z,52.95
2024-04-21T06:41:27.728Z,55.21
2024-04-21T06:42:27.811Z,53.98
2024-04-21T06:43:27.892Z,51.59
2024-04-21T06:44:27.983Z,54.65
2024-04-21T06:45:28.067Z,51.49
2024-04-21T06:46:28.222Z,55.32
2024-04-21T06:47:28.804Z,55.10
2024-04-21T06:48:28.281Z,52.42
2024-04-21T06:49:28.360Z,53.23
2024-04-21T06:50:28.299Z,55.12
2024-04-21T06:51:28.297Z,57.95
2024-04-21T06:52:28.355Z,55.12
2024-04-21T06:53:29.083Z,55.39
2024-04-21T06:54:28.399Z,56.15
2024-04-21T06:55:28.478Z,56.57
2024-04-21T06:56:28.459Z,53.75
2024-04-21T06:57:28.559Z,55.60
2024-04-21T06:58:28.547Z,51.60
2024-04-21T06:59:28.584Z,52.98
2024-04-21T07:00:28.609Z,54.89
2024-04-21T07:01:28.686Z,50.17
2024-04-21T07:02:28.799Z,52.52
2024-04-21T07:03:28.783Z,51.06
2024-04-21T07:04:28.941Z,52.83
2024-04-21T07:05:28.907Z,54.48
2024-04-21T07:06:28.983Z,51.22
2024-04-21T07:07:29.153Z,51.47
2024-04-21T07:08:29.182Z,54.05
2024-04-21T07:09:29.245Z,53.18
2024-04-21T07:10:29.490Z,52.63
2024-04-21T07:11:29.438Z,51.25
2024-04-21T07:12:29.515Z,51.08
2024-04-21T07:13:29.626Z,54.75
2024-04-21T07:14:29.663Z,54.87
2024-04-21T07:15:29.744Z,56.37
2024-04-21T07:16:29.872Z,58.49
2024-04-21T07:17:29.950Z,57.92
2024-04-21T07:18:30.140Z,57.33
2024-04-21T07:19:30.063Z,59.53
2024-04-21T07:20:30.077Z,56.95
2024-04-21T07:21:30.158Z,52.61
2024-04-21T07:22:30.249Z,51.23
2024-04-21T07:23:30.305Z,50.57
2024-04-21T07:24:32.571Z,54.08
2024-04-21T07:25:30.517Z,54.62
2024-04-21T07:26:30.401Z,56.79
2024-04-21T07:27:30.419Z,56.44
2024-04-21T07:28:30.404Z,56.97
2024-04-21T07:29:30.412Z,58.90
2024-04-21T07:30:30.405Z,59.61
2024-04-21T07:31:30.414Z,55.28
2024-04-21T07:32:30.530Z,57.56
2024-04-21T07:33:30.422Z,57.65
2024-04-21T07:34:30.473Z,59.32
2024-04-21T07:35:30.440Z,58.95
2024-04-21T07:36:30.439Z,60.33
2024-04-21T07:37:30.428Z,58.39
2024-04-21T07:38:30.431Z,54.79
2024-04-21T07:39:30.443Z,55.17
2024-04-21T07:40:30.575Z,52.61
2024-04-21T07:41:30.422Z,52.44
2024-04-21T07:42:30.420Z,54.57
2024-04-21T07:43:30.448Z,54.33
2024-04-21T07:44:30.418Z,53.76
2024-04-21T07:45:30.437Z,55.75
2024-04-21T07:46:30.527Z,56.45
2024-04-21T07:47:30.492Z,58.36
2024-04-21T07:48:30.481Z,56.63
2024-04-21T07:49:30.473Z,56.56
2024-04-21T07:50:30.454Z,54.85
2024-04-21T07:51:30.447Z,52.35
2024-04-21T07:52:30.504Z,53.75
2024-04-21T07:53:30.456Z,52.52
2024-04-21T07:54:30.460Z,51.25
2024-04-21T07:55:30.537Z,55.91
2024-04-21T07:56:42.404Z,50.00
2024-04-21T07:57:42.397Z,50.00
2024-04-21T07:58:42.400Z,50.00
2024-04-21T07:59:42.423Z,50.00
2024-04-21T08:00:42.430Z,50.00
2024-04-21T08:01:42.527Z,49.47
2024-04-21T08:02:42.492Z,54.38
2024-04-21T08:03:42.477Z,50.00
2024-04-21T08:04:42.406Z,54.39
2024-04-21T08:05:42.419Z,54.98
2024-04-21T08:06:42.422Z,53.96
2024-04-21T08:07:42.434Z,54.71
2024-04-21T08:08:42.421Z,54.95
2024-04-21T08:09:42.443Z,50.17
2024-04-21T08:10:50.518Z,52.15
2024-04-21T08:11:43.443Z,52.21
2024-04-21T08:12:42.390Z,50.06
2024-04-21T08:13:42.414Z,50.86
2024-04-21T08:14:42.423Z,49.24
2024-04-21T08:15:42.438Z,52.27
2024-04-21T08:16:42.439Z,50.59
2024-04-21T08:17:42.460Z,51.12
2024-04-21T08:18:42.582Z,52.68
2024-04-21T08:19:42.406Z,51.28
2024-04-21T08:20:42.456Z,51.83
2024-04-21T08:21:42.459Z,51.32
2024-04-21T08:22:42.567Z,54.95
2024-04-21T08:23:42.657Z,50.83
2024-04-21T08:24:42.710Z,56.71
2024-04-21T08:25:42.797Z,54.86
2024-04-21T08:26:42.856Z,56.73
2024-04-21T08:27:42.955Z,57.02
2024-04-21T08:28:43.016Z,57.34
2024-04-21T08:29:43.085Z,56.10
2024-04-21T08:30:43.202Z,57.85
2024-04-21T08:31:43.314Z,54.52
2024-04-21T08:32:43.452Z,56.06
2024-04-21T08:33:43.426Z,54.37
2024-04-21T08:34:43.493Z,55.72
2024-04-21T08:35:43.653Z,57.18
2024-04-21T08:36:43.710Z,55.25
2024-04-21T08:37:43.818Z,54.98
2024-04-21T08:38:43.868Z,56.88
2024-04-21T08:39:43.956Z,58.99
2024-04-21T08:40:44.028Z,58.90
2024-04-21T08:41:44.152Z,60.32
2024-04-21T08:42:44.328Z,61.64
2024-04-21T08:43:44.483Z,64.55
2024-04-21T08:44:44.636Z,63.80
2024-04-21T08:45:44.784Z,65.71
2024-04-21T08:46:44.961Z,67.69
2024-04-21T08:47:45.144Z,68.27
2024-04-21T08:48:45.269Z,70.85
2024-04-21T08:49:45.456Z,70.98
2024-04-21T08:50:45.591Z,74.71
2024-04-21T08:51:45.747Z,75.28
2024-04-21T08:52:45.926Z,76.02
2024-04-21T08:53:46.064Z,76.50
2024-04-21T08:54:46.229Z,76.09
2024-04-21T08:55:46.420Z,79.28
2024-04-21T08:56:46.574Z,75.99
2024-04-21T08:57:46.710Z,75.39
2024-04-21T08:58:46.866Z,76.51
2024-04-21T08:59:47.048Z,78.51
2024-04-21T09:00:47.337Z,77.15
2024-04-21T09:01:47.429Z,79.03
2024-04-21T09:02:47.516Z,80.69
2024-04-21T09:03:47.699Z,81.23
2024-04-21T09:04:47.871Z,81.29
2024-04-21T09:05:47.958Z,82.19
2024-04-21T09:06:48.122Z,82.74
2024-04-21T09:07:48.283Z,82.16
2024-04-21T09:08:48.417Z,84.89
2024-04-21T09:09:48.554Z,85.39
2024-04-21T09:10:48.760Z,87.11
2024-04-21T09:11:48.804Z,86.86
2024-04-21T09:12:48.885Z,86.95
2024-04-21T09:13:48.978Z,87.15
2024-04-21T09:14:49.037Z,88.39
2024-04-21T09:15:49.123Z,86.97
2024-04-21T09:16:49.215Z,87.39
2024-04-21T09:17:49.426Z,90.36
2024-04-21T09:18:49.576Z,92.28
2024-04-21T09:19:49.664Z,95.01
2024-04-21T09:20:49.791Z,92.79
2024-04-21T09:21:50.131Z,92.09
2024-04-21T09:22:50.093Z,93.83
2024-04-21T09:23:50.220Z,94.87
2024-04-21T09:24:50.367Z,97.27
2024-04-21T09:25:50.536Z,97.36
2024-04-21T09:26:50.640Z,96.38
2024-04-21T09:27:50.763Z,96.73
2024-04-21T09:28:50.843Z,98.05
2024-04-21T09:29:50.913Z,93.76
2024-04-21T09:30:51.067Z,97.35
2024-04-21T09:31:51.115Z,97.62
2024-04-21T09:32:51.247Z,99.17
2024-04-21T09:33:51.263Z,102.12
2024-04-21T09:34:51.376Z,101.46
2024-04-21T09:35:51.525Z,102.35
2024-04-21T09:36:51.650Z,98.12
2024-04-21T09:37:51.685Z,103.69
2024-04-21T09:38:51.804Z,104.05
2024-04-21T09:39:51.856Z,105.24
2024-04-21T09:40:51.968Z,104.55
2024-04-21T09:41:52.041Z,106.77
2024-04-21T09:42:52.139Z,108.32
2024-04-21T09:43:52.218Z,107.77
2024-04-21T09:44:52.298Z,107.63
2024-04-21T09:45:52.486Z,107.19
2024-04-21T09:46:52.489Z,108.54
2024-04-21T09:47:52.689Z,107.44
2024-04-21T09:48:52.685Z,109.33
2024-04-21T09:49:52.746Z,108.13
2024-04-21T09:50:52.879Z,107.90
2024-04-21T09:51:53.083Z,109.15
2024-04-21T09:52:53.168Z,106.52
2024-04-21T09:53:53.326Z,106.67
2024-04-21T09:54:53.476Z,107.09
2024-04-21T09:55:53.556Z,104.79
2024-04-21T09:56:53.592Z,106.28
2024-04-21T09:57:53.676Z,106.31
2024-04-21T09:58:53.781Z,104.84
2024-04-21T09:59:53.831Z,106.83
2024-04-21T10:00:54.018Z,107.11
2024-04-21T10:01:54.172Z,105.00
2024-04-21T10:02:54.389Z,107.16
2024-04-21T10:03:54.471Z,104.69
2024-04-21T10:04:54.523Z,105.47
2024-04-21T10:05:54.684Z,107.05
2024-04-21T10:06:54.815Z,106.56
2024-04-21T10:07:54.878Z,106.10
2024-04-21T10:08:54.988Z,107.21
2024-04-21T10:09:55.106Z,107.87
2024-04-21T10:10:55.158Z,105.32
2024-04-21T10:11:55.219Z,108.56
2024-04-21T10:12:55.340Z,107.94
2024-04-21T10:13:55.409Z,105.37
2024-04-21T10:14:55.470Z,106.57
2024-04-21T10:15:55.550Z,105.99
2024-04-21T10:16:55.627Z,105.58
2024-04-21T10:17:55.853Z,105.92
2024-04-21T10:18:55.866Z,106.12
2024-04-21T10:19:55.959Z,106.80
2024-04-21T10:20:56.121Z,104.98
2024-04-21T10:21:56.239Z,107.08
2024-04-21T10:22:56.299Z,106.94
2024-04-21T10:23:56.395Z,108.67
2024-04-21T10:24:56.480Z,110.90
2024-04-21T10:25:56.604Z,107.76
2024-04-21T10:26:56.648Z,109.77
2024-04-21T10:27:56.763Z,108.35
2024-04-21T10:28:56.856Z,109.46
2024-04-21T10:29:56.953Z,111.26
2024-04-21T10:30:57.118Z,111.12
2024-04-21T10:31:57.194Z,112.08
2024-04-21T10:32:57.281Z,111.74
2024-04-21T10:33:57.427Z,113.81
2024-04-21T10:34:57.520Z,111.59
2024-04-21T10:35:57.620Z,114.53
2024-04-21T10:36:57.760Z,113.03
2024-04-21T10:37:57.805Z,114.45
2024-04-21T10:38:57.903Z,114.11
2024-04-21T10:39:58.062Z,113.06
2024-04-21T10:40:58.091Z,112.83
2024-04-21T10:41:58.224Z,114.79
2024-04-21T10:42:58.292Z,115.27
2024-04-21T10:43:59.093Z,113.92
2024-04-21T10:44:58.401Z,116.04
2024-04-21T10:45:58.450Z,116.84
2024-04-21T10:46:58.474Z,116.00
2024-04-21T10:47:58.590Z,118.01
2024-04-21T10:48:58.556Z,115.21
2024-04-21T10:49:58.577Z,118.47
2024-04-21T10:50:58.643Z,117.40
2024-04-21T10:51:58.689Z,118.32
2024-04-21T10:52:58.720Z,118.31
2024-04-21T10:53:58.763Z,117.76
2024-04-21T10:54:58.864Z,117.26
2024-04-21T10:55:59.060Z,119.67
2024-04-21T10:56:59.011Z,118.92
2024-04-21T10:57:59.111Z,119.14
2024-04-21T10:58:59.192Z,116.54
2024-04-21T10:59:59.319Z,114.91
2024-04-21T11:00:59.515Z,115.63
2024-04-21T11:01:59.612Z,113.61
2024-04-21T11:02:59.610Z,109.47
2024-04-21T11:03:59.732Z,104.59
2024-04-21T11:04:59.799Z,105.17
2024-04-21T11:05:59.934Z,100.89
2024-04-21T11:07:00.124Z,104.69
2024-04-21T11:08:00.150Z,101.44
2024-04-21T11:09:00.245Z,102.00
2024-04-21T11:10:00.465Z,100.98
2024-04-21T11:11:00.493Z,101.80
2024-04-21T11:12:00.531Z,100.49
2024-04-21T11:13:00.663Z,100.79
2024-04-21T11:14:00.800Z,103.59
2024-04-21T11:15:00.884Z,103.06
2024-04-21T11:16:01.019Z,103.28
2024-04-21T11:17:01.109Z,101.96
2024-04-21T11:18:01.295Z,102.11
2024-04-21T11:19:01.357Z,104.41
2024-04-21T11:20:01.390Z,103.51
2024-04-21T11:21:01.473Z,104.34
2024-04-21T11:22:01.632Z,105.24
2024-04-21T11:23:01.674Z,107.99
2024-04-21T11:24:01.811Z,107.79
2024-04-21T11:25:01.972Z,109.12
2024-04-21T11:26:02.031Z,108.36
2024-04-21T11:27:02.158Z,108.07
2024-04-21T11:28:02.314Z,108.05
2024-04-21T11:29:02.394Z,109.23
2024-04-21T11:30:02.462Z,107.68
2024-04-21T11:31:02.630Z,107.11
2024-04-21T11:32:02.698Z,106.46
2024-04-21T11:33:02.834Z,107.63
2024-04-21T11:34:02.995Z,106.23
2024-04-21T11:35:03.037Z,106.22
2024-04-21T11:36:03.169Z,104.88
2024-04-21T11:37:03.290Z,105.23
2024-04-21T11:38:03.360Z,103.58
2024-04-21T11:39:03.441Z,106.46
2024-04-21T11:40:03.701Z,105.19
2024-04-21T11:41:03.720Z,107.10
2024-04-21T11:42:03.805Z,106.11
2024-04-21T11:43:03.953Z,106.95
2024-04-21T11:44:04.016Z,106.41
2024-04-21T11:45:04.142Z,106.39
2024-04-21T11:46:04.332Z,108.76
2024-04-21T11:47:04.344Z,109.26
2024-04-21T11:48:04.593Z,108.97
2024-04-21T11:49:04.582Z,109.83
2024-04-21T11:50:04.688Z,108.54
2024-04-21T11:51:04.787Z,109.70
2024-04-21T11:52:04.923Z,112.04
2024-04-21T11:53:04.936Z,111.72
2024-04-21T11:54:05.085Z,111.07
2024-04-21T11:55:05.194Z,113.50
2024-04-21T11:56:05.421Z,110.65
2024-04-21T11:57:05.384Z,111.70
2024-04-21T11:58:05.526Z,108.65
2024-04-21T11:59:05.573Z,108.91
2024-04-21T12:00:06.318Z,109.05
2024-04-21T12:01:05.795Z,108.86
2024-04-21T12:02:05.895Z,109.76
2024-04-21T12:03:05.975Z,110.98
2024-04-21T12:04:06.112Z,109.97
2024-04-21T12:05:06.178Z,110.88
2024-04-21T12:06:06.198Z,111.56
2024-04-21T12:07:06.407Z,109.08
2024-04-21T12:08:06.424Z,105.80
2024-04-21T12:09:06.579Z,104.08
2024-04-21T12:10:06.981Z,95.24
2024-04-21T12:11:06.943Z,91.41
2024-04-21T12:12:07.029Z,89.22
2024-04-21T12:13:07.282Z,87.20
2024-04-21T12:14:07.351Z,89.86
2024-04-21T12:15:07.541Z,90.17
2024-04-21T12:16:07.881Z,85.43
2024-04-21T12:17:07.890Z,84.13
2024-04-21T12:18:08.025Z,83.35
2024-04-21T12:19:09.130Z,82.36
2024-04-21T12:20:08.251Z,85.06
2024-04-21T12:21:08.326Z,82.22
2024-04-21T12:22:08.435Z,86.80
2024-04-21T12:23:08.487Z,88.12
2024-04-21T12:24:08.559Z,87.89
2024-04-21T12:25:08.845Z,89.99
2024-04-21T12:26:08.871Z,92.93
2024-04-21T12:27:09.053Z,91.72
2024-04-21T12:28:09.124Z,91.42
2024-04-21T12:29:09.240Z,91.01
2024-04-21T12:30:09.321Z,92.17
2024-04-21T12:31:09.460Z,89.27
2024-04-21T12:32:09.447Z,89.71
2024-04-21T12:33:09.775Z,91.17
2024-04-21T12:34:09.770Z,88.87
2024-04-21T12:35:09.946Z,89.45
2024-04-21T12:36:10.070Z,88.27
2024-04-21T12:37:10.234Z,89.83
2024-04-21T12:38:10.387Z,89.41
2024-04-21T12:39:10.587Z,88.84
2024-04-21T12:40:10.866Z,90.07
2024-04-21T12:41:10.862Z,88.91
2024-04-21T12:42:10.991Z,89.13
2024-04-21T12:43:11.187Z,83.94
2024-04-21T12:44:11.325Z,86.31
2024-04-21T12:45:11.478Z,83.41
2024-04-21T12:46:11.835Z,84.80
2024-04-21T12:47:11.867Z,82.65
2024-04-21T12:48:14.236Z,81.49
2024-04-21T12:49:12.012Z,83.76